Time;durP1;ratioP1;P1;durP2;ratioP2;P2;SDS_P1;SDS_P2;PMS_P1;PMS_P2;Temp;Humidity;BMP_temperature;BMP_pressure;BME280_temperature;BME280_humidity;BME280_pressure;Samples;Min_cycle;Max_cycle;Signal;HPM_P1;HPM_P2
2022/11/25 00:01:33;;;;;;;0.57;0.57;;;;;;;5.76;76.11;94396.06;5058338;28;20204;-75
2022/11/25 00:04:00;;;;;;;4.05;1.27;;;;;;;5.72;76.31;94396.69;5062569;28;20195;-73
2022/11/25 00:06:29;;;;;;;1.02;0.70;;;;;;;5.77;76.05;94409.22;5068777;28;20199;-74
2022/11/25 00:08:57;;;;;;;1.77;1.10;;;;;;;5.78;75.76;94405.44;5061871;28;20195;-73
2022/11/25 00:11:24;;;;;;;1.75;1.48;;;;;;;5.77;76.16;94401.16;5064932;28;20239;-76
2022/11/25 00:13:51;;;;;;;0.75;0.75;;;;;;;5.72;76.14;94407.44;5051609;28;20745;-78
2022/11/25 00:16:20;;;;;;;0.60;0.60;;;;;;;5.77;76.00;94403.03;5064779;28;20206;-74
2022/11/25 00:18:50;;;;;;;2.30;1.05;;;;;;;5.72;75.43;94407.44;5062284;28;20335;-73
2022/11/25 00:21:19;;;;;;;1.13;1.02;;;;;;;5.78;75.65;94410.00;5053025;28;20203;-74
2022/11/25 00:23:52;;;;;;;0.68;0.55;;;;;;;5.77;75.47;94429.91;5051763;28;20192;-77
2022/11/25 00:26:19;;;;;;;0.77;0.77;;;;;;;5.78;75.57;94415.38;5050989;28;20188;-74
2022/11/25 00:28:46;;;;;;;1.92;1.38;;;;;;;5.77;75.82;94419.97;5051448;28;20200;-74
2022/11/25 00:31:15;;;;;;;2.78;1.55;;;;;;;5.68;76.07;94422.56;5051276;28;20200;-75
2022/11/25 00:33:42;;;;;;;0.85;0.85;;;;;;;5.67;76.15;94414.81;5050694;28;20238;-73
2022/11/25 00:36:16;;;;;;;0.88;0.70;;;;;;;5.70;76.49;94425.75;5051305;28;20203;-76
2022/11/25 00:38:43;;;;;;;1.02;0.95;;;;;;;5.72;76.60;94420.09;5064484;28;20311;-75
2022/11/25 00:46:38;;;;;;;2.22;1.30;;;;;;;5.61;77.73;94419.50;5064212;28;20209;-76
2022/11/25 00:49:06;;;;;;;2.38;1.02;;;;;;;5.64;77.51;94416.22;5051096;28;20631;-75
2022/11/25 00:51:34;;;;;;;2.08;1.42;;;;;;;5.60;78.11;94420.59;5051536;28;20196;-75
2022/11/25 00:54:01;;;;;;;1.27;1.17;;;;;;;5.60;77.70;94425.97;5063335;28;20208;-76
2022/11/25 00:56:30;;;;;;;1.25;0.90;;;;;;;5.60;77.79;94420.59;5064015;28;20211;-76
2022/11/25 00:58:57;;;;;;;0.82;0.77;;;;;;;5.62;77.61;94425.66;5051300;28;20247;-75
2022/11/25 01:01:24;;;;;;;2.05;1.10;;;;;;;5.66;77.67;94423.97;5064244;28;20217;-74
2022/11/25 01:03:51;;;;;;;2.63;1.42;;;;;;;5.62;77.66;94445.25;5059252;28;21060;-73
2022/11/25 01:06:18;;;;;;;1.95;1.33;;;;;;;5.64;77.60;94443.06;5056690;28;20208;-73
2022/11/25 01:08:46;;;;;;;3.63;0.90;;;;;;;5.62;77.30;94434.50;5060950;28;20234;-74
2022/11/25 01:11:15;;;;;;;1.52;1.42;;;;;;;5.62;77.17;94421.09;5063543;28;20621;-74
2022/11/25 01:13:42;;;;;;;1.38;1.25;;;;;;;5.58;77.19;94428.16;5060704;28;20252;-73
2022/11/25 01:16:12;;;;;;;1.60;0.88;;;;;;;5.63;77.19;94433.41;5053569;28;20253;-74
2022/11/25 01:18:39;;;;;;;1.42;1.10;;;;;;;5.66;77.44;94430.13;5060821;28;20314;-75
2022/11/25 01:21:07;;;;;;;1.55;1.40;;;;;;;5.61;77.39;94432.13;5057015;28;20272;-75
2022/11/25 01:23:34;;;;;;;2.55;1.17;;;;;;;5.60;77.38;94417.91;5070364;28;20206;-74
2022/11/25 01:26:03;;;;;;;1.33;1.10;;;;;;;5.64;77.17;94432.31;5066032;28;20568;-73
2022/11/25 01:28:30;;;;;;;1.50;1.20;;;;;;;5.69;77.42;94423.38;5060506;28;20616;-74
2022/11/25 01:31:01;;;;;;;1.05;0.90;;;;;;;5.64;77.16;94410.84;5056035;28;20674;-74
2022/11/25 01:33:31;;;;;;;1.58;1.48;;;;;;;5.68;77.05;94419.09;5058097;28;20236;-74
2022/11/25 01:36:01;;;;;;;1.25;1.20;;;;;;;5.71;76.65;94410.44;5055476;28;20202;-74
2022/11/25 01:38:28;;;;;;;1.23;0.90;;;;;;;5.76;76.48;94413.00;5056974;28;20198;-74
2022/11/25 01:40:55;;;;;;;1.45;1.10;;;;;;;5.81;76.01;94409.41;5055868;28;20207;-74
2022/11/25 01:43:23;;;;;;;0.68;0.68;;;;;;;5.86;75.55;94407.41;5057240;28;20211;-74
2022/11/25 01:45:50;;;;;;;0.60;0.60;;;;;;;5.75;75.10;94406.03;5063081;28;20200;-74
2022/11/25 01:48:22;;;;;;;0.98;0.88;;;;;;;5.83;74.96;94401.84;5062766;28;20308;-75
2022/11/25 01:50:49;;;;;;;2.80;1.13;;;;;;;5.78;74.79;94393.88;5057630;28;20253;-74
2022/11/25 01:53:18;;;;;;;1.90;0.90;;;;;;;5.83;74.38;94397.25;5056114;28;20196;-74
2022/11/25 01:55:51;;;;;;;1.17;1.05;;;;;;;5.85;74.45;94400.44;5061336;28;20215;-74
2022/11/25 01:58:25;;;;;;;0.90;0.90;;;;;;;5.82;74.26;94389.50;5063096;28;20230;-73
2022/11/25 02:00:52;;;;;;;1.95;1.02;;;;;;;5.83;73.68;94386.50;5060354;28;20195;-74
2022/11/25 02:03:27;;;;;;;1.17;0.93;;;;;;;5.87;74.25;94390.19;5056404;28;20198;-74
2022/11/25 02:06:03;;;;;;;1.35;0.88;;;;;;;5.84;73.61;94392.69;5057824;28;20191;-75
2022/11/25 02:08:30;;;;;;;1.13;0.90;;;;;;;5.93;73.74;94407.00;5062439;28;20242;-74
2022/11/25 02:10:58;;;;;;;2.45;1.08;;;;;;;5.92;73.37;94405.41;5049154;28;20603;-75
2022/11/25 02:13:26;;;;;;;3.13;0.90;;;;;;;5.89;73.76;94400.66;5056994;28;20245;-73
2022/11/25 02:15:53;;;;;;;1.15;1.05;;;;;;;5.91;73.10;94414.56;5055317;28;20195;-74
2022/11/25 02:18:20;;;;;;;0.60;0.60;;;;;;;5.89;73.11;94406.03;5061567;28;20269;-74
2022/11/25 02:20:46;;;;;;;0.75;0.73;;;;;;;5.94;72.93;94413.97;5062520;28;20739;-74
2022/11/25 02:23:24;;;;;;;0.93;0.82;;;;;;;6.00;72.18;94412.78;5049463;28;20559;-74
2022/11/25 02:25:53;;;;;;;1.85;0.77;;;;;;;5.95;72.77;94423.63;5062408;28;20203;-74
2022/11/25 02:28:22;;;;;;;1.67;0.93;;;;;;;5.98;72.75;94414.97;5049516;28;20900;-74
2022/11/25 02:30:49;;;;;;;1.27;0.60;;;;;;;5.92;72.63;94411.59;5066015;28;20199;-74
2022/11/25 02:33:16;;;;;;;0.63;0.63;;;;;;;5.90;72.87;94419.16;5068927;28;20235;-74
2022/11/25 02:35:46;;;;;;;2.03;1.13;;;;;;;5.90;72.10;94415.69;5055657;28;20666;-74
2022/11/25 02:38:16;;;;;;;0.68;0.68;;;;;;;5.90;72.19;94423.75;5058179;28;20227;-74
2022/11/25 02:40:47;;;;;;;1.27;0.80;;;;;;;5.86;72.33;94422.75;5062246;28;20207;-74
2022/11/25 02:43:16;;;;;;;1.67;1.00;;;;;;;5.80;72.52;94415.88;5064537;28;20194;-74
2022/11/25 02:45:55;;;;;;;0.82;0.82;;;;;;;5.83;72.33;94417.97;5060095;28;20199;-74
2022/11/25 02:48:22;;;;;;;0.98;0.88;;;;;;;5.83;72.54;94423.34;5060104;28;20211;-75
2022/11/25 02:50:49;;;;;;;1.45;1.20;;;;;;;5.78;72.23;94413.50;5065153;28;20311;-74
2022/11/25 02:53:16;;;;;;;1.77;0.82;;;;;;;5.79;72.15;94419.66;5054965;28;20272;-75
2022/11/25 02:55:43;;;;;;;2.00;0.98;;;;;;;5.83;72.51;94417.97;5072858;28;20666;-75
2022/11/25 02:58:11;;;;;;;2.22;1.33;;;;;;;5.80;72.51;94421.25;5059607;28;20208;-75
2022/11/25 03:00:39;;;;;;;0.90;0.65;;;;;;;5.87;72.74;94419.75;5064234;28;20265;-75
2022/11/25 03:03:06;;;;;;;1.42;1.17;;;;;;;5.91;73.54;94430.72;5055163;28;20208;-75
2022/11/25 03:05:33;;;;;;;1.08;0.50;;;;;;;5.82;73.12;94427.91;5064014;28;20208;-74
2022/11/25 03:08:00;;;;;;;0.98;0.70;;;;;;;5.84;73.52;94430.31;5066282;28;20227;-74
2022/11/25 03:10:27;;;;;;;0.57;0.57;;;;;;;5.76;73.85;94428.31;5052710;28;20724;-74
2022/11/25 03:12:54;;;;;;;1.88;0.90;;;;;;;5.76;74.11;94431.00;5066082;28;20198;-75
2022/11/25 03:15:21;;;;;;;0.63;0.63;;;;;;;5.72;73.92;94431.63;5061481;28;20696;-75
2022/11/25 03:17:49;;;;;;;1.70;0.85;;;;;;;5.75;74.23;94426.72;5069700;28;20665;-75
2022/11/25 03:20:17;;;;;;;0.57;0.57;;;;;;;5.72;74.46;94428.94;5052581;28;20199;-75
2022/11/25 03:22:44;;;;;;;4.85;0.80;;;;;;;5.68;74.76;94441.38;5055502;28;20221;-76
2022/11/25 03:25:13;;;;;;;1.73;0.98;;;;;;;5.58;75.62;94438.91;5062545;28;20258;-75
2022/11/25 03:27:40;;;;;;;0.98;0.82;;;;;;;5.60;75.81;94439.38;5065845;28;20695;-74
2022/11/25 03:30:10;;;;;;;1.08;1.00;;;;;;;5.55;76.00;94455.63;5062802;28;20203;-78
2022/11/25 03:32:36;;;;;;;1.48;1.02;;;;;;;5.56;76.11;94456.44;5068102;28;20224;-75
2022/11/25 03:35:05;;;;;;;1.75;1.38;;;;;;;5.53;76.69;94452.44;5063014;28;20199;-75
2022/11/25 03:37:32;;;;;;;1.17;1.00;;;;;;;5.51;77.44;94448.47;5058768;28;20658;-75
2022/11/25 03:39:59;;;;;;;1.15;0.95;;;;;;;5.49;77.66;94461.41;5061354;28;20299;-75
2022/11/25 03:42:26;;;;;;;2.25;1.17;;;;;;;5.41;78.28;94468.28;5057102;28;20232;-74
2022/11/25 03:44:52;;;;;;;2.83;1.08;;;;;;;5.40;78.52;94468.56;5061375;28;20716;-73
2022/11/25 03:47:19;;;;;;;1.55;0.85;;;;;;;5.31;79.25;94465.78;5070258;28;20258;-74
2022/11/25 03:49:46;;;;;;;1.30;1.20;;;;;;;5.27;79.97;94470.16;5059360;28;20208;-76
2022/11/25 03:52:14;;;;;;;1.38;0.90;;;;;;;5.23;79.91;94475.31;5065893;28;20244;-74
2022/11/25 03:54:41;;;;;;;1.65;0.98;;;;;;;5.21;80.32;94477.50;5051706;28;20204;-74
2022/11/25 03:57:07;;;;;;;2.63;1.10;;;;;;;5.12;80.36;94483.88;5065473;28;20208;-75
2022/11/25 03:59:34;;;;;;;1.30;0.93;;;;;;;5.14;81.01;94481.69;5066029;28;20276;-74
2022/11/25 04:02:01;;;;;;;1.45;1.05;;;;;;;5.12;80.84;94483.88;5064649;28;20208;-74
2022/11/25 04:04:28;;;;;;;1.85;1.20;;;;;;;5.09;80.79;94487.13;5052326;28;20199;-73
2022/11/25 04:06:55;;;;;;;0.85;0.70;;;;;;;5.14;80.55;94492.44;5064454;28;20221;-74
2022/11/25 04:09:24;;;;;;;0.63;0.63;;;;;;;5.12;80.52;94489.25;5065027;28;20234;-75
2022/11/25 04:14:35;;;;;;;1.17;0.80;;;;;;;5.07;80.04;94492.78;5058238;28;20199;-75
2022/11/25 04:17:06;;;;;;;0.75;0.68;;;;;;;5.00;80.20;94487.03;5061930;28;20204;-75
2022/11/25 04:19:32;;;;;;;3.22;1.20;;;;;;;4.98;80.77;94499.94;5056304;28;20636;-75
2022/11/25 04:22:00;;;;;;;0.98;0.70;;;;;;;5.01;80.80;94499.38;5071497;28;20202;-75
2022/11/25 04:24:31;;;;;;;1.92;0.95;;;;;;;5.00;80.69;94498.56;5066705;28;20200;-74
2022/11/25 04:26:57;;;;;;;0.93;0.82;;;;;;;4.88;80.88;94511.66;5062780;28;20220;-75
2022/11/25 04:29:24;;;;;;;0.75;0.70;;;;;;;4.90;80.99;94517.53;5057577;28;20316;-75
2022/11/25 04:31:51;;;;;;;2.35;1.17;;;;;;;4.94;80.68;94515.03;5059415;28;20204;-74
2022/11/25 04:34:18;;;;;;;1.13;0.68;;;;;;;5.02;80.45;94521.63;5054908;28;20285;-74
2022/11/25 04:36:45;;;;;;;0.60;0.60;;;;;;;5.03;80.33;94523.22;5070948;28;20332;-74
2022/11/25 04:39:11;;;;;;;0.85;0.82;;;;;;;4.99;80.31;94523.81;5052459;28;20249;-74
2022/11/25 04:41:39;;;;;;;0.70;0.70;;;;;;;4.92;80.58;94523.38;5062446;28;20219;-75
2022/11/25 04:44:06;;;;;;;1.40;0.80;;;;;;;4.90;80.86;94525.59;5057604;28;20199;-73
2022/11/25 04:46:37;;;;;;;1.15;0.85;;;;;;;4.90;80.90;94538.22;5058537;28;20199;-73
2022/11/25 04:49:04;;;;;;;0.57;0.55;;;;;;;4.85;80.92;94539.09;5063749;28;20212;-74
2022/11/25 04:51:31;;;;;;;0.60;0.60;;;;;;;4.83;81.15;94545.81;5063891;28;20237;-73
2022/11/25 04:53:58;;;;;;;0.68;0.68;;;;;;;4.76;81.50;94535.47;5057819;28;20249;-71
2022/11/25 04:56:25;;;;;;;0.50;0.50;;;;;;;4.79;81.21;94556.34;5052207;28;20277;-75
2022/11/25 05:01:38;;;;;;;1.73;1.38;;;;;;;4.77;81.40;94553.19;5053862;28;20672;-75
2022/11/25 05:04:04;;;;;;;2.67;1.95;;;;;;;4.80;81.44;94563.31;5060369;28;20210;-75
2022/11/25 05:06:31;;;;;;;2.10;1.67;;;;;;;4.84;81.13;94575.06;5064189;28;20196;-74
2022/11/25 05:08:58;;;;;;;2.35;1.45;;;;;;;4.84;81.04;94567.00;5058769;28;20264;-74
2022/11/25 05:11:25;;;;;;;3.08;1.80;;;;;;;4.87;81.16;94577.16;5061313;28;20192;-75
2022/11/25 05:13:55;;;;;;;1.70;1.52;;;;;;;4.84;80.55;94580.44;5052292;28;20199;-75
2022/11/25 05:16:22;;;;;;;1.80;1.45;;;;;;;4.95;80.03;94587.22;5058130;28;20211;-74
2022/11/25 05:18:48;;;;;;;1.70;1.60;;;;;;;4.88;79.83;94575.28;5055437;28;20242;-74
2022/11/25 05:21:15;;;;;;;1.52;0.60;;;;;;;4.96;79.58;94588.00;5052700;28;20196;-74
2022/11/25 05:23:42;;;;;;;0.52;0.52;;;;;;;4.93;79.26;94594.75;5058754;28;20196;-73
2022/11/25 05:26:09;;;;;;;1.00;0.80;;;;;;;4.87;79.44;94593.25;5052752;28;20345;-74
2022/11/25 05:28:35;;;;;;;0.80;0.80;;;;;;;4.95;78.75;94603.31;5053700;28;20218;-73
2022/11/25 05:31:03;;;;;;;1.73;0.57;;;;;;;5.00;78.34;94608.63;5049092;28;20269;-73
2022/11/25 05:33:30;;;;;;;1.65;0.60;;;;;;;5.12;77.61;94604.69;5048438;28;20634;-74
2022/11/25 05:35:58;;;;;;;0.93;0.73;;;;;;;5.16;77.60;94614.53;5048308;28;20242;-73
2022/11/25 05:38:26;;;;;;;1.30;0.82;;;;;;;5.24;77.02;94619.22;5048617;28;20254;-74
2022/11/25 05:40:52;;;;;;;0.95;0.85;;;;;;;5.82;83.43;94613.38;5048944;28;20285;-73
2022/11/25 05:43:19;;;;;;;0.65;0.65;;;;;;;5.82;78.20;94617.94;5062266;28;20206;-72
2022/11/25 05:45:46;;;;;;;0.63;0.60;;;;;;;5.75;76.43;94630.97;5063402;28;20215;-72
2022/11/25 05:48:14;;;;;;;0.70;0.70;;;;;;;5.72;75.29;94622.44;5049110;28;20231;-73
2022/11/25 05:50:41;;;;;;;1.85;1.02;;;;;;;5.56;75.55;94617.63;5048409;28;20207;-74
2022/11/25 05:53:08;;;;;;;0.65;0.65;;;;;;;5.55;75.61;94632.94;5057331;28;20203;-73
2022/11/25 05:55:34;;;;;;;1.20;0.77;;;;;;;5.56;75.51;94618.41;5064769;28;20288;-74
2022/11/25 05:58:01;;;;;;;0.80;0.80;;;;;;;5.62;74.78;94635.22;5052555;28;20198;-74
2022/11/25 06:00:29;;;;;;;1.27;0.70;;;;;;;5.60;74.68;94638.22;5057860;28;20203;-73
2022/11/25 06:02:56;;;;;;;0.57;0.57;;;;;;;5.70;73.99;94643.44;5052639;28;20199;-74
2022/11/25 06:05:24;;;;;;;1.10;0.68;;;;;;;5.88;73.97;94638.25;5056967;28;20196;-74
2022/11/25 06:07:51;;;;;;;0.93;0.70;;;;;;;6.21;71.85;94645.19;5058961;28;20241;-74
2022/11/25 06:10:19;;;;;;;0.55;0.55;;;;;;;6.46;71.08;94640.38;5058342;28;20231;-74
2022/11/25 06:12:46;;;;;;;1.58;0.90;;;;;;;6.44;71.19;94637.97;5049751;28;20211;-74
2022/11/25 06:15:13;;;;;;;0.70;0.60;;;;;;;6.30;71.00;94648.75;5049342;28;20212;-74
2022/11/25 06:17:40;;;;;;;0.70;0.70;;;;;;;6.25;71.34;94651.56;5063976;28;20842;-74
2022/11/25 06:20:07;;;;;;;1.20;0.73;;;;;;;6.07;71.99;94660.50;5050607;28;20258;-75
2022/11/25 06:22:35;;;;;;;1.48;0.80;;;;;;;6.09;71.97;94674.47;5054518;28;20244;-74
2022/11/25 06:25:03;;;;;;;3.63;0.93;;;;;;;6.08;72.32;94672.88;5049116;28;20211;-75
2022/11/25 06:27:29;;;;;;;1.20;1.10;;;;;;;6.08;72.63;94675.56;5049391;28;20275;-73
2022/11/25 06:29:56;;;;;;;0.88;0.70;;;;;;;5.99;72.36;94672.78;5048956;28;20718;-74
2022/11/25 06:32:23;;;;;;;1.13;0.80;;;;;;;5.98;72.40;94683.81;5048549;28;20691;-75
2022/11/25 06:34:50;;;;;;;0.77;0.75;;;;;;;5.92;71.98;94674.25;5049207;28;20200;-74
2022/11/25 06:37:17;;;;;;;1.30;1.08;;;;;;;5.93;71.85;94675.84;5051888;28;20199;-75
2022/11/25 06:39:45;;;;;;;0.65;0.65;;;;;;;6.01;71.65;94677.84;5059277;28;20211;-74
2022/11/25 06:42:12;;;;;;;1.25;0.98;;;;;;;6.00;71.57;94687.00;5048631;28;20651;-74
2022/11/25 06:44:38;;;;;;;1.45;1.15;;;;;;;5.99;71.38;94686.22;5058128;28;20614;-73
2022/11/25 06:47:05;;;;;;;0.80;0.80;;;;;;;6.03;71.68;94681.00;5052429;28;20295;-74
2022/11/25 06:49:34;;;;;;;0.82;0.77;;;;;;;6.06;72.02;94685.81;5048557;28;20685;-74
2022/11/25 06:52:00;;;;;;;1.42;1.15;;;;;;;6.10;71.91;94692.19;5049092;28;20203;-75
2022/11/25 06:54:27;;;;;;;1.02;0.90;;;;;;;6.13;71.59;94705.06;5049029;28;20207;-74
2022/11/25 06:56:55;;;;;;;1.30;0.95;;;;;;;6.18;71.19;94694.19;5048573;28;20257;-75
2022/11/25 06:59:22;;;;;;;0.80;0.80;;;;;;;6.16;71.60;94707.13;5049107;28;20262;-75
2022/11/25 07:01:49;;;;;;;6.38;1.85;;;;;;;6.23;71.43;94712.13;5062123;28;20207;-75
2022/11/25 07:04:16;;;;;;;1.95;0.88;;;;;;;6.29;71.45;94716.28;5049107;28;20208;-74
2022/11/25 07:06:45;;;;;;;1.08;0.98;;;;;;;6.30;70.90;94713.31;5048971;28;20208;-85
2022/11/25 07:09:11;;;;;;;7.97;1.67;;;;;;;6.34;71.11;94717.00;5047909;28;20247;-74
2022/11/25 07:11:40;;;;;;;0.98;0.93;;;;;;;6.40;70.67;94718.50;5047759;28;20212;-73
2022/11/25 07:14:11;;;;;;;1.20;1.00;;;;;;;6.46;70.62;94721.09;5047924;28;20210;-73
2022/11/25 07:16:39;;;;;;;1.15;1.05;;;;;;;6.49;70.17;94715.13;5048499;28;20720;-74
2022/11/25 07:19:07;;;;;;;2.35;1.20;;;;;;;6.50;69.99;94700.56;5048188;28;20246;-73
2022/11/25 07:21:35;;;;;;;1.27;0.90;;;;;;;6.54;69.30;94728.47;5048712;28;20663;-76
2022/11/25 07:24:04;;;;;;;1.42;1.17;;;;;;;6.48;69.39;94713.53;5049591;28;20655;-74
2022/11/25 07:26:32;;;;;;;1.38;1.02;;;;;;;6.48;69.38;94724.28;5047797;28;20578;-74
2022/11/25 07:29:02;;;;;;;1.55;1.00;;;;;;;6.60;69.71;94721.88;5051574;28;20236;-74
2022/11/25 07:31:32;;;;;;;1.13;0.70;;;;;;;6.47;69.54;94728.06;5063742;28;20218;-74
2022/11/25 07:34:01;;;;;;;1.10;1.00;;;;;;;6.43;69.60;94717.09;5052069;28;20285;-75
2022/11/25 07:36:29;;;;;;;0.63;0.55;;;;;;;6.48;69.33;94726.97;5051972;28;20234;-73
2022/11/25 07:38:58;;;;;;;1.00;0.95;;;;;;;6.53;69.52;94716.13;5052515;28;20227;-75
2022/11/25 07:41:26;;;;;;;1.55;1.25;;;;;;;6.60;69.22;94724.56;5051839;28;20203;-75
2022/11/25 07:43:55;;;;;;;1.05;0.85;;;;;;;6.48;69.79;94725.09;5052425;28;20589;-74
2022/11/25 07:46:24;;;;;;;0.93;0.88;;;;;;;6.39;70.12;94726.88;5051469;28;20211;-74
2022/11/25 07:48:53;;;;;;;1.35;0.95;;;;;;;6.37;69.76;94740.63;5051649;28;20250;-74
2022/11/25 07:51:22;;;;;;;1.17;0.70;;;;;;;6.37;69.90;94740.63;5064382;28;20256;-74
2022/11/25 07:53:50;;;;;;;1.58;0.93;;;;;;;6.59;69.38;94737.22;5072022;28;20658;-75
2022/11/25 07:56:17;;;;;;;1.35;1.05;;;;;;;6.68;69.00;94729.28;5072140;28;20218;-75
2022/11/25 07:58:45;;;;;;;1.70;1.13;;;;;;;6.62;68.98;94746.59;5071420;28;20230;-73
2022/11/25 08:01:13;;;;;;;1.50;0.90;;;;;;;6.60;68.92;94740.72;5071413;28;20257;-73
2022/11/25 08:03:42;;;;;;;1.05;0.88;;;;;;;6.81;68.37;94750.00;5071472;28;20616;-75
2022/11/25 08:06:11;;;;;;;1.38;0.90;;;;;;;6.75;68.42;94745.81;5057070;28;20219;-74
2022/11/25 08:08:40;;;;;;;1.70;1.60;;;;;;;6.63;68.36;94756.28;5050987;28;20234;-76
2022/11/25 08:11:07;;;;;;;0.93;0.80;;;;;;;6.75;68.40;94745.81;5050659;28;20441;-75
2022/11/25 08:13:34;;;;;;;0.93;0.93;;;;;;;7.03;68.36;94747.38;5050771;28;20598;-73
2022/11/25 08:16:01;;;;;;;1.73;1.15;;;;;;;6.98;68.06;94763.63;5050404;28;20686;-75
2022/11/25 08:18:28;;;;;;;1.10;1.00;;;;;;;6.96;67.76;94746.19;5051234;28;20215;-73
2022/11/25 08:20:59;;;;;;;0.50;0.50;;;;;;;7.21;67.82;94752.94;5051475;28;20208;-74
2022/11/25 08:23:28;;;;;;;2.15;1.38;;;;;;;7.41;66.91;94752.47;5051894;28;20228;-75
2022/11/25 08:25:55;;;;;;;1.55;1.27;;;;;;;7.16;67.12;94766.50;5051523;28;20579;-74
2022/11/25 08:28:22;;;;;;;0.95;0.80;;;;;;;7.12;67.16;94761.72;5050846;28;20211;-75
2022/11/25 08:30:49;;;;;;;2.00;1.38;;;;;;;7.25;67.04;94770.84;5050052;28;20227;-75
2022/11/25 08:33:16;;;;;;;1.38;1.13;;;;;;;7.19;66.52;94776.66;5050359;28;20239;-75
2022/11/25 08:35:42;;;;;;;0.95;0.90;;;;;;;7.22;66.73;94760.72;5050583;28;20207;-75
2022/11/25 08:38:11;;;;;;;1.80;1.45;;;;;;;7.23;67.35;94761.50;5050932;28;20203;-75
2022/11/25 08:40:44;;;;;;;1.75;1.20;;;;;;;7.30;67.36;94765.38;5049783;28;20459;-76
2022/11/25 08:43:11;;;;;;;1.45;1.35;;;;;;;7.41;67.08;94764.03;5062790;28;20264;-73
2022/11/25 08:45:38;;;;;;;2.10;1.70;;;;;;;7.48;67.57;94755.53;5052042;28;20200;-74
2022/11/25 08:48:05;;;;;;;0.85;0.85;;;;;;;7.70;66.23;94766.34;5049932;28;20261;-74
2022/11/25 08:50:32;;;;;;;1.50;1.08;;;;;;;7.72;65.83;94766.84;5056753;28;20235;-74
2022/11/25 08:53:00;;;;;;;0.85;0.85;;;;;;;7.38;66.16;94771.94;5070858;28;20272;-75
2022/11/25 08:55:27;;;;;;;1.20;1.00;;;;;;;7.34;66.50;94763.66;5070940;28;20203;-74
2022/11/25 08:57:55;;;;;;;1.58;1.17;;;;;;;7.23;66.89;94772.28;5071133;28;20214;-74
2022/11/25 09:00:23;;;;;;;2.40;1.45;;;;;;;7.35;66.41;94759.88;5070272;28;20563;-74
2022/11/25 09:02:49;;;;;;;1.60;1.33;;;;;;;7.25;66.50;94759.28;5057564;28;20613;-73
2022/11/25 09:05:17;;;;;;;2.83;1.48;;;;;;;7.22;66.83;94757.22;5051145;28;20662;-75
2022/11/25 09:07:44;;;;;;;1.58;1.13;;;;;;;7.21;67.22;94758.31;5064143;28;20600;-76
2022/11/25 09:10:16;;;;;;;2.03;1.27;;;;;;;7.20;67.17;94756.72;5057370;28;20223;-74
2022/11/25 09:12:42;;;;;;;2.28;1.65;;;;;;;7.25;67.70;94764.66;5056139;28;20642;-74
2022/11/25 09:15:12;;;;;;;3.65;1.17;;;;;;;7.10;67.84;94757.75;5050123;28;20215;-75
2022/11/25 09:17:38;;;;;;;1.85;1.38;;;;;;;7.25;68.28;94760.06;5050189;28;20298;-75
2022/11/25 09:20:06;;;;;;;1.13;1.10;;;;;;;7.24;67.99;94765.81;5050435;28;20203;-76
2022/11/25 09:22:33;;;;;;;1.52;1.40;;;;;;;7.58;67.40;94763.38;5050704;28;20265;-75
2022/11/25 09:25:00;;;;;;;2.58;1.20;;;;;;;7.85;66.40;94763.28;5050270;28;20215;-76
2022/11/25 09:27:27;;;;;;;1.58;1.27;;;;;;;7.85;66.29;94755.19;5050487;28;20603;-75
2022/11/25 09:29:53;;;;;;;2.17;1.20;;;;;;;7.75;65.98;94768.13;5049960;28;20702;-75
2022/11/25 09:32:21;;;;;;;1.35;1.15;;;;;;;7.61;65.66;94768.19;5049006;28;20211;-75
2022/11/25 09:34:48;;;;;;;1.08;0.85;;;;;;;7.63;66.12;94759.78;5059858;28;20420;-76
2022/11/25 09:37:15;;;;;;;2.75;1.70;;;;;;;7.30;67.09;94761.88;5053656;28;20216;-74
2022/11/25 09:39:42;;;;;;;2.10;1.42;;;;;;;7.45;67.24;94775.00;5049348;28;20211;-74
2022/11/25 09:48:20;;;;;;;0.77;0.70;;;;;;;7.81;65.61;94762.28;5049563;28;20291;-73
2022/11/25 09:50:59;;;;;;;1.38;1.25;;;;;;;7.77;65.75;94755.94;5049334;28;20227;-74
2022/11/25 09:53:38;;;;;;;1.95;0.98;;;;;;;7.67;65.94;94772.34;5049639;28;20671;-75
2022/11/25 09:56:13;;;;;;;2.30;1.48;;;;;;;7.87;65.81;94772.97;5050233;28;20272;-74
2022/11/25 09:58:48;;;;;;;1.52;0.90;;;;;;;7.83;65.55;94768.19;5049480;28;20249;-75
2022/11/25 10:01:20;;;;;;;2.40;1.20;;;;;;;7.87;65.12;94775.66;5049996;28;20248;-78
2022/11/25 10:03:53;;;;;;;1.52;0.73;;;;;;;7.94;64.44;94759.84;5049634;28;20200;-75
2022/11/25 10:06:23;;;;;;;1.08;0.90;;;;;;;7.88;64.65;94766.47;5049907;28;20264;-73
2022/11/25 10:08:52;;;;;;;1.90;1.48;;;;;;;8.01;64.24;94749.44;5049420;28;20207;-75
2022/11/25 10:11:30;;;;;;;2.53;1.60;;;;;;;7.71;65.35;94767.94;5049517;28;20791;-74
2022/11/25 10:14:03;;;;;;;2.63;1.40;;;;;;;7.87;65.30;94776.47;5050034;28;20207;-76
2022/11/25 10:16:35;;;;;;;4.05;1.10;;;;;;;7.85;64.91;94762.47;5048886;28;20671;-75
2022/11/25 10:19:11;;;;;;;1.17;1.02;;;;;;;7.70;65.29;94771.72;5048955;28;20195;-74
2022/11/25 10:21:38;;;;;;;1.40;0.75;;;;;;;7.74;65.06;94767.31;5049002;28;20673;-75
2022/11/25 10:24:06;;;;;;;0.80;0.70;;;;;;;7.47;65.70;94756.66;5062538;28;20206;-75
2022/11/25 10:26:41;;;;;;;0.98;0.90;;;;;;;7.51;65.95;94773.00;5049444;28;20639;-76
2022/11/25 10:29:23;;;;;;;2.08;0.90;;;;;;;7.60;65.49;94761.19;5063078;28;20234;-80
2022/11/25 10:31:53;;;;;;;1.55;1.00;;;;;;;7.74;65.14;94758.44;5049581;28;20211;-73
2022/11/25 10:34:28;;;;;;;1.60;0.98;;;;;;;7.99;65.26;94768.59;5048843;28;20239;-74
2022/11/25 10:36:58;;;;;;;1.50;1.05;;;;;;;7.88;64.58;94755.69;5051248;28;20203;-75
2022/11/25 10:39:31;;;;;;;1.00;0.88;;;;;;;8.04;64.64;94767.69;5061048;28;20204;-75
2022/11/25 10:42:03;;;;;;;0.80;0.75;;;;;;;7.89;64.34;94773.47;5049626;28;20203;-75
2022/11/25 10:44:32;;;;;;;1.48;1.02;;;;;;;7.97;63.69;94760.03;5050040;28;20211;-75
2022/11/25 10:47:15;;;;;;;0.70;0.70;;;;;;;8.06;63.56;94757.41;5049326;28;20304;-75
2022/11/25 10:49:54;;;;;;;1.73;0.93;;;;;;;8.06;63.09;94766.25;5048929;28;20215;-75
2022/11/25 10:52:23;;;;;;;1.00;0.90;;;;;;;8.32;62.75;94766.47;5068838;28;20199;-74
2022/11/25 10:54:57;;;;;;;2.72;1.58;;;;;;;8.42;61.94;94766.19;5069493;28;20280;-75
2022/11/25 10:57:28;;;;;;;1.20;1.10;;;;;;;8.66;62.09;94749.63;5068752;28;20199;-75
2022/11/25 10:59:57;;;;;;;1.17;0.70;;;;;;;8.40;62.68;94775.69;5068242;28;20266;-76
2022/11/25 11:02:26;;;;;;;1.60;1.17;;;;;;;8.71;61.43;94773.78;5068404;28;20873;-76
2022/11/25 11:05:01;;;;;;;0.70;0.70;;;;;;;8.64;61.49;94780.72;5071201;28;20662;-74
2022/11/25 11:07:31;;;;;;;1.33;0.98;;;;;;;8.25;62.38;94786.84;5072764;28;20210;-75
2022/11/25 11:10:23;;;;;;;2.35;1.05;;;;;;;8.26;62.74;94794.66;5054252;28;20576;-75
2022/11/25 11:12:55;;;;;;;3.42;1.20;;;;;;;8.24;63.47;94794.16;5042190;28;20204;-75
2022/11/25 11:15:24;;;;;;;1.52;1.08;;;;;;;8.28;63.30;94786.25;5052701;28;20258;-77
2022/11/25 11:17:51;;;;;;;1.85;0.90;;;;;;;8.14;64.08;94791.72;5051515;28;20681;-76
2022/11/25 11:20:23;;;;;;;1.75;0.98;;;;;;;7.74;64.83;94764.63;5062497;28;20203;-75
2022/11/25 11:22:57;;;;;;;0.90;0.90;;;;;;;7.66;65.65;94786.13;5055359;28;20393;-75
2022/11/25 11:25:30;;;;;;;1.92;1.08;;;;;;;7.76;66.47;94794.78;5052561;28;20234;-75
2022/11/25 11:27:57;;;;;;;1.25;1.10;;;;;;;7.46;66.45;94798.16;5052403;28;20341;-75
2022/11/25 11:30:26;;;;;;;1.13;1.02;;;;;;;7.64;65.67;94793.72;5065185;28;20430;-75
2022/11/25 11:33:03;;;;;;;1.08;0.98;;;;;;;7.61;65.14;94789.75;5051901;28;20269;-75
2022/11/25 11:35:59;;;;;;;0.80;0.80;;;;;;;7.67;65.32;94799.28;5053188;28;20609;-79
2022/11/25 11:38:33;;;;;;;2.45;1.60;;;;;;;7.62;67.40;94796.72;5042671;28;20207;-75
2022/11/25 11:41:19;;;;;;;0.80;0.70;;;;;;;7.76;66.62;94797.47;5058793;28;20501;-76
2022/11/25 11:44:05;;;;;;;1.92;1.55;;;;;;;7.65;66.71;94806.91;5056480;28;20230;-76
2022/11/25 11:46:49;;;;;;;5.90;0.90;;;;;;;7.55;66.96;94817.09;5052101;28;20645;-75
2022/11/25 11:49:39;;;;;;;2.22;1.45;;;;;;;7.37;67.69;94810.78;5051446;28;20203;-74
2022/11/25 11:52:16;;;;;;;1.65;1.50;;;;;;;7.32;68.00;94818.97;5070659;28;20616;-75
2022/11/25 11:54:46;;;;;;;1.88;1.13;;;;;;;7.11;68.74;94816.69;5071929;28;20273;-75
2022/11/25 11:57:22;;;;;;;2.55;1.17;;;;;;;7.28;67.00;94812.56;5071504;28;20203;-75
2022/11/25 11:59:53;;;;;;;2.00;1.10;;;;;;;7.47;67.16;94805.16;5071541;28;20230;-75
2022/11/25 12:02:26;;;;;;;3.40;1.10;;;;;;;7.63;66.72;94798.34;5071597;28;20298;-74
2022/11/25 12:05:02;;;;;;;1.95;0.98;;;;;;;7.69;66.93;94807.88;5071937;28;20274;-74
2022/11/25 12:07:36;;;;;;;2.10;1.13;;;;;;;7.81;69.17;94805.44;5071181;28;20321;-73